Airfield :
LOGIN :

Register | Disclaimer

   EN    FR    IT 

 










Legend :    VFR   Marginal VFR   IFR   Intensive IFR   Very Intensive IFR
Visi :
Ceiling :
>= 8 km
>= 3000ft
5 to 8 km
1000 to 3000 ft
1500m to 5 km
500 to 1000 ft
800 to 1500m
200 to 500 ft
< 800m
< 200 ft
Symbols :   Thunderstorms  Fog  Heavy snow  Heavy precipitations  Wind > 20 kt
SIGMETs :     Misc.  Thunderstorms  Icing  Turbulence  Mountain Waves  Volcanic Ashes






- Airport Elevation : 1504 ft
- IATA code : PNA


LEPP - Noain Pamplona

CURRENT METAR :
  • 081700Z 32009KT 280V010 9999 FEW050 34/17 Q1017

EXPIRED METARs :
  • 081630Z 32011KT 9999 FEW050 35/17 Q1017
  • 081600Z 35003KT 9999 FEW050 37/15 Q1017
  • 081530Z 35004KT 9999 FEW050 37/12 Q1017
  • 081500Z 30005KT 240V360 9999 FEW050 37/13 Q1017
  • 081430Z 32002KT CAVOK 37/13 Q1018

TAF TAF LEPP
Valid from the 08 at 15:00 until the 09 at 15:00 UTC


081400Z 0815/0915 VRB04KT 9999 SCT050 TX38/0915Z TN20/0905Z
TEMPO 0815/0822 34010KT
TEMPO 0816/0824 TS SHRA SCT020CB BKN030TCU
TEMPO 0911/0915 16010KT



MET'MAP, your aeronautical weather chart ! - Copyright ORBIFLY December 2007 - Disclaimer

ORBIFLY MET'MAP TEAM :

Programming & Development : Alexandra Zaïnal
Concept & original design : Baudouin d'Aumeries
Assistance for programming : Marc-Olivier Méhu
Technical & hardware support : Manuel Goepfert

Contact : metmap@orbifly.com




SOURCES & CREDITS :

   NOAA